sensor_id;sensor_type;location;lat;lon;timestamp;P1;durP1;ratioP1;P2;durP2;ratioP2
4434;SDS011;46552;52.150;8.428;2024-03-23T00:54:31;26.57;;;8.50;;
4434;SDS011;46552;52.150;8.428;2024-03-23T00:56:59;12.00;;;6.70;;
4434;SDS011;46552;52.150;8.428;2024-03-23T00:59:26;21.73;;;7.97;;
4434;SDS011;46552;52.150;8.428;2024-03-23T01:01:53;22.43;;;7.33;;
4434;SDS011;46552;52.150;8.428;2024-03-23T01:04:20;36.07;;;10.63;;
4434;SDS011;46552;52.150;8.428;2024-03-23T01:06:47;24.97;;;10.60;;
4434;SDS011;46552;52.150;8.428;2024-03-23T01:09:13;34.17;;;10.93;;
4434;SDS011;46552;52.150;8.428;2024-03-23T01:11:42;26.90;;;9.20;;
4434;SDS011;46552;52.150;8.428;2024-03-23T01:14:08;19.13;;;8.67;;
4434;SDS011;46552;52.150;8.428;2024-03-23T01:16:36;27.47;;;8.07;;
4434;SDS011;46552;52.150;8.428;2024-03-23T01:19:03;25.83;;;8.90;;
4434;SDS011;46552;52.150;8.428;2024-03-23T01:21:31;21.80;;;7.10;;
4434;SDS011;46552;52.150;8.428;2024-03-23T01:23:58;33.67;;;7.97;;
4434;SDS011;46552;52.150;8.428;2024-03-23T01:26:25;15.77;;;6.60;;
4434;SDS011;46552;52.150;8.428;2024-03-23T01:28:54;20.73;;;6.10;;
4434;SDS011;46552;52.150;8.428;2024-03-23T01:31:21;15.23;;;4.60;;
4434;SDS011;46552;52.150;8.428;2024-03-23T01:33:47;19.63;;;7.17;;
4434;SDS011;46552;52.150;8.428;2024-03-23T01:36:15;28.20;;;6.17;;
4434;SDS011;46552;52.150;8.428;2024-03-23T01:38:41;22.03;;;6.93;;
4434;SDS011;46552;52.150;8.428;2024-03-23T01:41:08;16.67;;;5.40;;
4434;SDS011;46552;52.150;8.428;2024-03-23T01:43:34;19.40;;;7.07;;
4434;SDS011;46552;52.150;8.428;2024-03-23T01:46:04;19.87;;;6.10;;
4434;SDS011;46552;52.150;8.428;2024-03-23T01:48:30;20.07;;;4.77;;
4434;SDS011;46552;52.150;8.428;2024-03-23T01:50:57;31.83;;;5.80;;
4434;SDS011;46552;52.150;8.428;2024-03-23T01:53:24;12.13;;;5.23;;
4434;SDS011;46552;52.150;8.428;2024-03-23T01:55:51;27.77;;;6.90;;
4434;SDS011;46552;52.150;8.428;2024-03-23T01:58:17;17.20;;;4.50;;
4434;SDS011;46552;52.150;8.428;2024-03-23T02:00:45;23.97;;;6.47;;
4434;SDS011;46552;52.150;8.428;2024-03-23T02:03:23;18.30;;;4.67;;
4434;SDS011;46552;52.150;8.428;2024-03-23T02:05:50;13.13;;;4.80;;
4434;SDS011;46552;52.150;8.428;2024-03-23T02:08:18;11.50;;;4.27;;
4434;SDS011;46552;52.150;8.428;2024-03-23T02:10:47;19.53;;;4.97;;
4434;SDS011;46552;52.150;8.428;2024-03-23T02:13:14;14.83;;;3.73;;
4434;SDS011;46552;52.150;8.428;2024-03-23T02:15:42;15.27;;;4.30;;
4434;SDS011;46552;52.150;8.428;2024-03-23T02:18:08;19.83;;;4.83;;
4434;SDS011;46552;52.150;8.428;2024-03-23T02:20:38;9.57;;;3.60;;
4434;SDS011;46552;52.150;8.428;2024-03-23T02:23:05;24.10;;;4.70;;
4434;SDS011;46552;52.150;8.428;2024-03-23T02:25:39;14.87;;;4.57;;
4434;SDS011;46552;52.150;8.428;2024-03-23T02:28:05;25.13;;;4.30;;
4434;SDS011;46552;52.150;8.428;2024-03-23T02:30:32;17.10;;;3.67;;
4434;SDS011;46552;52.150;8.428;2024-03-23T02:32:58;8.17;;;4.13;;
4434;SDS011;46552;52.150;8.428;2024-03-23T02:35:26;11.17;;;4.20;;
4434;SDS011;46552;52.150;8.428;2024-03-23T02:37:52;16.60;;;5.37;;
4434;SDS011;46552;52.150;8.428;2024-03-23T02:40:20;15.03;;;6.07;;
4434;SDS011;46552;52.150;8.428;2024-03-23T02:42:49;14.20;;;5.00;;
4434;SDS011;46552;52.150;8.428;2024-03-23T02:45:17;15.73;;;4.83;;
4434;SDS011;46552;52.150;8.428;2024-03-23T02:47:43;20.07;;;5.10;;
4434;SDS011;46552;52.150;8.428;2024-03-23T02:50:10;20.37;;;5.40;;
4434;SDS011;46552;52.150;8.428;2024-03-23T02:52:37;25.43;;;6.43;;
4434;SDS011;46552;52.150;8.428;2024-03-23T02:55:04;15.00;;;5.50;;
4434;SDS011;46552;52.150;8.428;2024-03-23T02:57:32;20.67;;;6.07;;
4434;SDS011;46552;52.150;8.428;2024-03-23T02:59:59;16.57;;;5.20;;
4434;SDS011;46552;52.150;8.428;2024-03-23T03:02:27;22.13;;;5.90;;
4434;SDS011;46552;52.150;8.428;2024-03-23T03:04:55;23.23;;;7.97;;
4434;SDS011;46552;52.150;8.428;2024-03-23T03:07:21;18.73;;;6.60;;
4434;SDS011;46552;52.150;8.428;2024-03-23T03:09:48;18.13;;;6.00;;
4434;SDS011;46552;52.150;8.428;2024-03-23T03:12:15;19.73;;;5.80;;
4434;SDS011;46552;52.150;8.428;2024-03-23T03:14:45;22.70;;;6.90;;
4434;SDS011;46552;52.150;8.428;2024-03-23T03:17:11;20.57;;;7.40;;
4434;SDS011;46552;52.150;8.428;2024-03-23T03:19:40;21.53;;;6.10;;
4434;SDS011;46552;52.150;8.428;2024-03-23T03:22:06;15.53;;;5.40;;
4434;SDS011;46552;52.150;8.428;2024-03-23T03:24:33;10.43;;;5.33;;
4434;SDS011;46552;52.150;8.428;2024-03-23T03:26:59;16.43;;;6.20;;
4434;SDS011;46552;52.150;8.428;2024-03-23T03:29:28;16.57;;;5.97;;
4434;SDS011;46552;52.150;8.428;2024-03-23T03:32:03;26.97;;;6.13;;
4434;SDS011;46552;52.150;8.428;2024-03-23T03:34:30;17.03;;;6.33;;
4434;SDS011;46552;52.150;8.428;2024-03-23T03:36:57;21.93;;;4.87;;
4434;SDS011;46552;52.150;8.428;2024-03-23T03:39:25;18.37;;;5.30;;
4434;SDS011;46552;52.150;8.428;2024-03-23T03:41:52;15.87;;;6.03;;
4434;SDS011;46552;52.150;8.428;2024-03-23T03:44:20;15.67;;;5.00;;
4434;SDS011;46552;52.150;8.428;2024-03-23T03:46:47;12.80;;;4.17;;
4434;SDS011;46552;52.150;8.428;2024-03-23T03:49:16;21.20;;;6.03;;
4434;SDS011;46552;52.150;8.428;2024-03-23T03:51:42;12.93;;;4.63;;
4434;SDS011;46552;52.150;8.428;2024-03-23T03:54:09;15.87;;;5.37;;
4434;SDS011;46552;52.150;8.428;2024-03-23T03:56:35;12.33;;;4.80;;
4434;SDS011;46552;52.150;8.428;2024-03-23T03:59:03;16.27;;;4.47;;
4434;SDS011;46552;52.150;8.428;2024-03-23T04:01:30;15.50;;;4.50;;
4434;SDS011;46552;52.150;8.428;2024-03-23T04:03:58;23.10;;;4.70;;
4434;SDS011;46552;52.150;8.428;2024-03-23T04:06:26;12.80;;;5.20;;
4434;SDS011;46552;52.150;8.428;2024-03-23T04:08:53;25.60;;;5.80;;
4434;SDS011;46552;52.150;8.428;2024-03-23T04:11:21;14.70;;;4.60;;
4434;SDS011;46552;52.150;8.428;2024-03-23T04:13:48;20.43;;;4.67;;
4434;SDS011;46552;52.150;8.428;2024-03-23T04:16:24;15.80;;;5.10;;
4434;SDS011;46552;52.150;8.428;2024-03-23T04:18:53;12.47;;;4.63;;
4434;SDS011;46552;52.150;8.428;2024-03-23T04:21:19;20.70;;;5.50;;
4434;SDS011;46552;52.150;8.428;2024-03-23T04:23:49;18.23;;;4.80;;
4434;SDS011;46552;52.150;8.428;2024-03-23T04:26:15;19.77;;;5.23;;
4434;SDS011;46552;52.150;8.428;2024-03-23T04:28:43;14.23;;;5.27;;
4434;SDS011;46552;52.150;8.428;2024-03-23T04:31:09;11.83;;;5.87;;
4434;SDS011;46552;52.150;8.428;2024-03-23T04:33:36;13.83;;;4.83;;
4434;SDS011;46552;52.150;8.428;2024-03-23T04:36:03;22.27;;;6.30;;
4434;SDS011;46552;52.150;8.428;2024-03-23T04:38:32;12.90;;;4.83;;
4434;SDS011;46552;52.150;8.428;2024-03-23T04:41:01;14.30;;;5.70;;
4434;SDS011;46552;52.150;8.428;2024-03-23T04:43:29;18.40;;;5.47;;
4434;SDS011;46552;52.150;8.428;2024-03-23T04:45:56;16.37;;;5.53;;
4434;SDS011;46552;52.150;8.428;2024-03-23T04:48:24;18.07;;;5.10;;
4434;SDS011;46552;52.150;8.428;2024-03-23T04:50:54;12.37;;;5.37;;
4434;SDS011;46552;52.150;8.428;2024-03-23T04:53:22;18.10;;;6.07;;
4434;SDS011;46552;52.150;8.428;2024-03-23T04:55:53;15.53;;;5.67;;
4434;SDS011;46552;52.150;8.428;2024-03-23T04:58:22;18.00;;;5.10;;
4434;SDS011;46552;52.150;8.428;2024-03-23T05:00:53;24.23;;;7.13;;
4434;SDS011;46552;52.150;8.428;2024-03-23T05:03:22;23.70;;;7.00;;
4434;SDS011;46552;52.150;8.428;2024-03-23T05:05:49;21.13;;;5.20;;
4434;SDS011;46552;52.150;8.428;2024-03-23T05:08:16;30.33;;;6.53;;
4434;SDS011;46552;52.150;8.428;2024-03-23T05:10:43;16.90;;;6.10;;
4434;SDS011;46552;52.150;8.428;2024-03-23T05:13:11;23.30;;;6.70;;
4434;SDS011;46552;52.150;8.428;2024-03-23T05:15:39;20.30;;;6.40;;
4434;SDS011;46552;52.150;8.428;2024-03-23T05:18:06;16.70;;;6.00;;
4434;SDS011;46552;52.150;8.428;2024-03-23T05:20:32;17.43;;;5.10;;
4434;SDS011;46552;52.150;8.428;2024-03-23T05:22:59;19.70;;;5.80;;
4434;SDS011;46552;52.150;8.428;2024-03-23T05:25:27;17.30;;;6.77;;
4434;SDS011;46552;52.150;8.428;2024-03-23T05:27:54;24.90;;;6.60;;
4434;SDS011;46552;52.150;8.428;2024-03-23T05:30:20;12.90;;;5.80;;
4434;SDS011;46552;52.150;8.428;2024-03-23T05:32:50;20.13;;;5.10;;
4434;SDS011;46552;52.150;8.428;2024-03-23T05:35:16;16.83;;;6.00;;
4434;SDS011;46552;52.150;8.428;2024-03-23T05:37:45;18.57;;;5.57;;
4434;SDS011;46552;52.150;8.428;2024-03-23T05:40:11;17.77;;;7.50;;
4434;SDS011;46552;52.150;8.428;2024-03-23T05:42:40;21.43;;;6.53;;
4434;SDS011;46552;52.150;8.428;2024-03-23T05:45:07;27.40;;;6.43;;
4434;SDS011;46552;52.150;8.428;2024-03-23T05:47:36;17.53;;;6.13;;
4434;SDS011;46552;52.150;8.428;2024-03-23T05:50:04;22.67;;;7.00;;
4434;SDS011;46552;52.150;8.428;2024-03-23T05:52:35;25.97;;;7.90;;
4434;SDS011;46552;52.150;8.428;2024-03-23T05:55:01;26.23;;;6.97;;
4434;SDS011;46552;52.150;8.428;2024-03-23T05:57:28;16.87;;;7.17;;
4434;SDS011;46552;52.150;8.428;2024-03-23T05:59:56;29.90;;;6.77;;
4434;SDS011;46552;52.150;8.428;2024-03-23T06:02:23;23.13;;;8.20;;
4434;SDS011;46552;52.150;8.428;2024-03-23T06:04:50;21.07;;;7.80;;
4434;SDS011;46552;52.150;8.428;2024-03-23T06:07:19;21.77;;;8.90;;
4434;SDS011;46552;52.150;8.428;2024-03-23T06:09:46;25.97;;;8.20;;
4434;SDS011;46552;52.150;8.428;2024-03-23T06:12:16;23.50;;;8.80;;
4434;SDS011;46552;52.150;8.428;2024-03-23T06:14:42;27.00;;;10.23;;
4434;SDS011;46552;52.150;8.428;2024-03-23T06:17:10;27.17;;;8.30;;
4434;SDS011;46552;52.150;8.428;2024-03-23T06:19:36;35.90;;;9.83;;
4434;SDS011;46552;52.150;8.428;2024-03-23T06:22:05;42.23;;;13.47;;
4434;SDS011;46552;52.150;8.428;2024-03-23T06:24:33;22.53;;;9.80;;
4434;SDS011;46552;52.150;8.428;2024-03-23T06:27:00;21.23;;;9.40;;
4434;SDS011;46552;52.150;8.428;2024-03-23T06:29:26;28.93;;;10.40;;
4434;SDS011;46552;52.150;8.428;2024-03-23T06:31:55;32.73;;;9.70;;
4434;SDS011;46552;52.150;8.428;2024-03-23T06:34:21;36.10;;;10.87;;
4434;SDS011;46552;52.150;8.428;2024-03-23T06:36:48;28.70;;;9.00;;
4434;SDS011;46552;52.150;8.428;2024-03-23T06:39:16;36.10;;;10.43;;
4434;SDS011;46552;52.150;8.428;2024-03-23T06:41:51;33.43;;;9.77;;
4434;SDS011;46552;52.150;8.428;2024-03-23T06:44:18;34.53;;;10.77;;
4434;SDS011;46552;52.150;8.428;2024-03-23T06:46:47;32.20;;;10.33;;
4434;SDS011;46552;52.150;8.428;2024-03-23T06:49:15;25.87;;;10.77;;
4434;SDS011;46552;52.150;8.428;2024-03-23T06:51:42;28.67;;;9.90;;
4434;SDS011;46552;52.150;8.428;2024-03-23T06:54:10;34.23;;;11.33;;
4434;SDS011;46552;52.150;8.428;2024-03-23T06:56:37;30.10;;;10.80;;
4434;SDS011;46552;52.150;8.428;2024-03-23T06:59:04;28.37;;;8.73;;
4434;SDS011;46552;52.150;8.428;2024-03-23T07:01:32;38.50;;;10.57;;
4434;SDS011;46552;52.150;8.428;2024-03-23T07:03:58;33.70;;;10.30;;
4434;SDS011;46552;52.150;8.428;2024-03-23T07:06:25;41.93;;;12.47;;
4434;SDS011;46552;52.150;8.428;2024-03-23T07:08:52;42.13;;;12.67;;
4434;SDS011;46552;52.150;8.428;2024-03-23T07:11:19;35.13;;;12.37;;
4434;SDS011;46552;52.150;8.428;2024-03-23T07:13:46;31.50;;;11.87;;
4434;SDS011;46552;52.150;8.428;2024-03-23T07:16:17;34.60;;;12.10;;
4434;SDS011;46552;52.150;8.428;2024-03-23T07:18:43;45.53;;;11.33;;
4434;SDS011;46552;52.150;8.428;2024-03-23T07:21:10;27.10;;;10.27;;
4434;SDS011;46552;52.150;8.428;2024-03-23T07:23:36;38.77;;;11.10;;
4434;SDS011;46552;52.150;8.428;2024-03-23T07:26:07;43.53;;;12.97;;
4434;SDS011;46552;52.150;8.428;2024-03-23T07:28:33;39.07;;;10.83;;
4434;SDS011;46552;52.150;8.428;2024-03-23T07:31:02;30.03;;;9.90;;
4434;SDS011;46552;52.150;8.428;2024-03-23T07:33:32;39.80;;;11.80;;
4434;SDS011;46552;52.150;8.428;2024-03-23T07:36:00;45.40;;;10.93;;
4434;SDS011;46552;52.150;8.428;2024-03-23T07:38:27;33.20;;;10.30;;
4434;SDS011;46552;52.150;8.428;2024-03-23T07:41:04;36.07;;;10.47;;
4434;SDS011;46552;52.150;8.428;2024-03-23T07:43:31;40.87;;;10.80;;
4434;SDS011;46552;52.150;8.428;2024-03-23T07:45:58;26.90;;;10.40;;
4434;SDS011;46552;52.150;8.428;2024-03-23T07:48:25;33.73;;;10.17;;
4434;SDS011;46552;52.150;8.428;2024-03-23T07:50:59;32.00;;;9.80;;
4434;SDS011;46552;52.150;8.428;2024-03-23T07:53:26;27.57;;;9.80;;
4434;SDS011;46552;52.150;8.428;2024-03-23T07:55:56;40.80;;;10.80;;
4434;SDS011;46552;52.150;8.428;2024-03-23T07:58:23;57.20;;;11.40;;
4434;SDS011;46552;52.150;8.428;2024-03-23T08:00:51;32.17;;;9.30;;
4434;SDS011;46552;52.150;8.428;2024-03-23T08:03:18;27.87;;;11.37;;
4434;SDS011;46552;52.150;8.428;2024-03-23T08:05:45;25.40;;;10.13;;
4434;SDS011;46552;52.150;8.428;2024-03-23T08:08:15;33.53;;;10.53;;
4434;SDS011;46552;52.150;8.428;2024-03-23T08:10:47;26.53;;;10.37;;
4434;SDS011;46552;52.150;8.428;2024-03-23T08:13:16;31.83;;;10.37;;
4434;SDS011;46552;52.150;8.428;2024-03-23T08:15:42;24.93;;;9.17;;
4434;SDS011;46552;52.150;8.428;2024-03-23T08:18:10;26.07;;;9.10;;
4434;SDS011;46552;52.150;8.428;2024-03-23T08:20:37;37.50;;;8.87;;
4434;SDS011;46552;52.150;8.428;2024-03-23T08:23:04;27.20;;;11.43;;
4434;SDS011;46552;52.150;8.428;2024-03-23T08:25:33;21.20;;;9.10;;
4434;SDS011;46552;52.150;8.428;2024-03-23T08:28:00;29.20;;;9.13;;
4434;SDS011;46552;52.150;8.428;2024-03-23T08:30:27;29.73;;;7.27;;
4434;SDS011;46552;52.150;8.428;2024-03-23T08:32:55;21.43;;;7.50;;
4434;SDS011;46552;52.150;8.428;2024-03-23T08:35:22;21.23;;;7.90;;
4434;SDS011;46552;52.150;8.428;2024-03-23T08:37:50;25.67;;;9.40;;
4434;SDS011;46552;52.150;8.428;2024-03-23T08:40:16;30.37;;;8.40;;
4434;SDS011;46552;52.150;8.428;2024-03-23T08:42:45;20.33;;;7.40;;
4434;SDS011;46552;52.150;8.428;2024-03-23T08:45:11;28.73;;;8.37;;
4434;SDS011;46552;52.150;8.428;2024-03-23T08:47:40;23.67;;;8.13;;
4434;SDS011;46552;52.150;8.428;2024-03-23T08:50:07;24.50;;;8.93;;
4434;SDS011;46552;52.150;8.428;2024-03-23T08:52:35;20.30;;;6.13;;
4434;SDS011;46552;52.150;8.428;2024-03-23T08:55:01;28.67;;;7.43;;
4434;SDS011;46552;52.150;8.428;2024-03-23T08:57:29;24.60;;;6.70;;
4434;SDS011;46552;52.150;8.428;2024-03-23T08:59:58;14.83;;;6.33;;
4434;SDS011;46552;52.150;8.428;2024-03-23T09:02:26;23.47;;;7.53;;
4434;SDS011;46552;52.150;8.428;2024-03-23T09:04:52;20.37;;;6.47;;
4434;SDS011;46552;52.150;8.428;2024-03-23T09:07:20;16.57;;;5.03;;
4434;SDS011;46552;52.150;8.428;2024-03-23T09:09:46;19.33;;;6.13;;
4434;SDS011;46552;52.150;8.428;2024-03-23T09:12:13;15.97;;;5.20;;
4434;SDS011;46552;52.150;8.428;2024-03-23T09:14:39;18.83;;;5.43;;
4434;SDS011;46552;52.150;8.428;2024-03-23T09:17:08;25.80;;;6.40;;
4434;SDS011;46552;52.150;8.428;2024-03-23T09:19:35;12.77;;;6.30;;
4434;SDS011;46552;52.150;8.428;2024-03-23T09:22:03;17.70;;;5.60;;
4434;SDS011;46552;52.150;8.428;2024-03-23T09:24:29;16.60;;;6.60;;
4434;SDS011;46552;52.150;8.428;2024-03-23T09:26:57;25.27;;;6.57;;
4434;SDS011;46552;52.150;8.428;2024-03-23T09:29:24;19.43;;;7.23;;
4434;SDS011;46552;52.150;8.428;2024-03-23T09:31:51;16.73;;;7.60;;
4434;SDS011;46552;52.150;8.428;2024-03-23T09:34:19;15.30;;;6.43;;
4434;SDS011;46552;52.150;8.428;2024-03-23T09:36:46;19.73;;;6.70;;
4434;SDS011;46552;52.150;8.428;2024-03-23T09:39:16;12.80;;;5.27;;
4434;SDS011;46552;52.150;8.428;2024-03-23T09:41:44;24.07;;;5.90;;
4434;SDS011;46552;52.150;8.428;2024-03-23T09:44:10;15.13;;;4.80;;
4434;SDS011;46552;52.150;8.428;2024-03-23T09:46:38;24.63;;;4.73;;
4434;SDS011;46552;52.150;8.428;2024-03-23T09:49:05;14.07;;;4.27;;
4434;SDS011;46552;52.150;8.428;2024-03-23T09:51:36;11.10;;;4.37;;
4434;SDS011;46552;52.150;8.428;2024-03-23T09:54:03;9.90;;;4.33;;
4434;SDS011;46552;52.150;8.428;2024-03-23T09:56:30;11.00;;;4.40;;
4434;SDS011;46552;52.150;8.428;2024-03-23T09:59:00;11.63;;;5.27;;
4434;SDS011;46552;52.150;8.428;2024-03-23T10:01:29;14.20;;;4.73;;
4434;SDS011;46552;52.150;8.428;2024-03-23T10:03:56;21.33;;;5.17;;
4434;SDS011;46552;52.150;8.428;2024-03-23T10:06:23;14.07;;;5.70;;
4434;SDS011;46552;52.150;8.428;2024-03-23T10:08:52;9.10;;;4.07;;
4434;SDS011;46552;52.150;8.428;2024-03-23T10:11:20;12.83;;;4.53;;
4434;SDS011;46552;52.150;8.428;2024-03-23T10:13:47;13.50;;;4.80;;
4434;SDS011;46552;52.150;8.428;2024-03-23T10:16:24;12.73;;;4.53;;
4434;SDS011;46552;52.150;8.428;2024-03-23T10:18:52;16.70;;;4.70;;
4434;SDS011;46552;52.150;8.428;2024-03-23T10:21:19;17.17;;;6.27;;
4434;SDS011;46552;52.150;8.428;2024-03-23T10:23:45;14.80;;;5.07;;
4434;SDS011;46552;52.150;8.428;2024-03-23T10:26:17;20.43;;;4.90;;
4434;SDS011;46552;52.150;8.428;2024-03-23T10:28:56;13.17;;;4.47;;
4434;SDS011;46552;52.150;8.428;2024-03-23T10:31:26;13.10;;;4.90;;
4434;SDS011;46552;52.150;8.428;2024-03-23T10:33:54;13.40;;;5.63;;
4434;SDS011;46552;52.150;8.428;2024-03-23T10:36:22;24.53;;;6.87;;
4434;SDS011;46552;52.150;8.428;2024-03-23T10:38:50;9.10;;;4.90;;
4434;SDS011;46552;52.150;8.428;2024-03-23T10:41:19;14.57;;;5.10;;
4434;SDS011;46552;52.150;8.428;2024-03-23T10:43:46;13.27;;;4.50;;
4434;SDS011;46552;52.150;8.428;2024-03-23T10:46:14;10.93;;;4.40;;
4434;SDS011;46552;52.150;8.428;2024-03-23T10:48:42;11.90;;;5.30;;
4434;SDS011;46552;52.150;8.428;2024-03-23T10:51:10;8.93;;;3.50;;
4434;SDS011;46552;52.150;8.428;2024-03-23T10:53:37;7.40;;;3.17;;
4434;SDS011;46552;52.150;8.428;2024-03-23T10:56:05;7.30;;;2.53;;
4434;SDS011;46552;52.150;8.428;2024-03-23T10:58:35;12.50;;;3.70;;
4434;SDS011;46552;52.150;8.428;2024-03-23T11:01:05;11.23;;;3.30;;
4434;SDS011;46552;52.150;8.428;2024-03-23T11:03:32;6.07;;;2.50;;
4434;SDS011;46552;52.150;8.428;2024-03-23T11:06:01;4.40;;;1.70;;
4434;SDS011;46552;52.150;8.428;2024-03-23T11:08:34;7.17;;;2.50;;
4434;SDS011;46552;52.150;8.428;2024-03-23T11:11:13;8.97;;;2.53;;
4434;SDS011;46552;52.150;8.428;2024-03-23T11:13:44;3.27;;;1.70;;
4434;SDS011;46552;52.150;8.428;2024-03-23T11:16:13;8.20;;;2.50;;
4434;SDS011;46552;52.150;8.428;2024-03-23T11:18:41;5.70;;;2.20;;
4434;SDS011;46552;52.150;8.428;2024-03-23T11:21:08;8.33;;;2.27;;
4434;SDS011;46552;52.150;8.428;2024-03-23T11:23:36;6.03;;;2.57;;
4434;SDS011;46552;52.150;8.428;2024-03-23T11:26:07;6.00;;;2.23;;
4434;SDS011;46552;52.150;8.428;2024-03-23T11:28:33;10.60;;;2.87;;
4434;SDS011;46552;52.150;8.428;2024-03-23T11:31:02;9.27;;;2.50;;
4434;SDS011;46552;52.150;8.428;2024-03-23T11:33:35;27.67;;;5.73;;
4434;SDS011;46552;52.150;8.428;2024-03-23T11:36:03;9.53;;;3.33;;
4434;SDS011;46552;52.150;8.428;2024-03-23T11:38:31;10.37;;;2.77;;
4434;SDS011;46552;52.150;8.428;2024-03-23T11:41:03;16.53;;;3.53;;
4434;SDS011;46552;52.150;8.428;2024-03-23T11:43:30;15.73;;;4.47;;
4434;SDS011;46552;52.150;8.428;2024-03-23T11:45:57;6.50;;;3.30;;
4434;SDS011;46552;52.150;8.428;2024-03-23T11:48:26;9.57;;;3.63;;
4434;SDS011;46552;52.150;8.428;2024-03-23T11:50:55;12.73;;;4.70;;
4434;SDS011;46552;52.150;8.428;2024-03-23T11:53:23;11.07;;;3.17;;
4434;SDS011;46552;52.150;8.428;2024-03-23T11:55:52;15.93;;;4.20;;
4434;SDS011;46552;52.150;8.428;2024-03-23T11:58:21;9.87;;;3.53;;
4434;SDS011;46552;52.150;8.428;2024-03-23T12:00:49;14.93;;;3.30;;
4434;SDS011;46552;52.150;8.428;2024-03-23T12:03:17;5.50;;;2.17;;
4434;SDS011;46552;52.150;8.428;2024-03-23T12:05:49;5.50;;;2.20;;
4434;SDS011;46552;52.150;8.428;2024-03-23T12:08:19;4.67;;;1.60;;
4434;SDS011;46552;52.150;8.428;2024-03-23T12:10:48;4.50;;;1.70;;
4434;SDS011;46552;52.150;8.428;2024-03-23T12:13:19;7.60;;;2.20;;
4434;SDS011;46552;52.150;8.428;2024-03-23T12:15:47;6.03;;;1.90;;
4434;SDS011;46552;52.150;8.428;2024-03-23T12:18:15;7.47;;;2.83;;
4434;SDS011;46552;52.150;8.428;2024-03-23T12:20:42;7.50;;;2.10;;
4434;SDS011;46552;52.150;8.428;2024-03-23T12:23:11;6.43;;;2.13;;
4434;SDS011;46552;52.150;8.428;2024-03-23T12:25:38;6.77;;;2.00;;
4434;SDS011;46552;52.150;8.428;2024-03-23T12:28:06;6.90;;;2.03;;
4434;SDS011;46552;52.150;8.428;2024-03-23T12:30:35;8.80;;;2.50;;
4434;SDS011;46552;52.150;8.428;2024-03-23T12:33:05;8.43;;;3.20;;
4434;SDS011;46552;52.150;8.428;2024-03-23T12:35:33;4.90;;;2.70;;
4434;SDS011;46552;52.150;8.428;2024-03-23T12:37:59;9.30;;;2.30;;
4434;SDS011;46552;52.150;8.428;2024-03-23T12:40:28;4.90;;;2.03;;
4434;SDS011;46552;52.150;8.428;2024-03-23T12:42:55;3.50;;;1.53;;
4434;SDS011;46552;52.150;8.428;2024-03-23T12:45:22;9.37;;;2.00;;
4434;SDS011;46552;52.150;8.428;2024-03-23T12:47:49;7.00;;;2.43;;
4434;SDS011;46552;52.150;8.428;2024-03-23T12:50:17;4.30;;;2.40;;
4434;SDS011;46552;52.150;8.428;2024-03-23T12:52:44;7.33;;;2.40;;
4434;SDS011;46552;52.150;8.428;2024-03-23T12:55:11;7.47;;;3.20;;
4434;SDS011;46552;52.150;8.428;2024-03-23T12:57:39;10.27;;;2.40;;
4434;SDS011;46552;52.150;8.428;2024-03-23T13:00:07;7.70;;;3.10;;
4434;SDS011;46552;52.150;8.428;2024-03-23T13:02:36;6.87;;;2.30;;
4434;SDS011;46552;52.150;8.428;2024-03-23T13:05:04;14.93;;;1.60;;
4434;SDS011;46552;52.150;8.428;2024-03-23T13:07:33;4.03;;;0.90;;
4434;SDS011;46552;52.150;8.428;2024-03-23T13:10:00;2.73;;;1.40;;
4434;SDS011;46552;52.150;8.428;2024-03-23T13:12:27;3.57;;;1.17;;
4434;SDS011;46552;52.150;8.428;2024-03-23T13:14:56;3.87;;;1.50;;
4434;SDS011;46552;52.150;8.428;2024-03-23T13:17:22;3.17;;;1.33;;
4434;SDS011;46552;52.150;8.428;2024-03-23T13:19:49;2.60;;;1.03;;
4434;SDS011;46552;52.150;8.428;2024-03-23T13:22:16;4.77;;;1.50;;
4434;SDS011;46552;52.150;8.428;2024-03-23T13:24:43;6.27;;;3.50;;
4434;SDS011;46552;52.150;8.428;2024-03-23T13:27:10;7.33;;;4.00;;
4434;SDS011;46552;52.150;8.428;2024-03-23T13:29:37;6.63;;;3.37;;
4434;SDS011;46552;52.150;8.428;2024-03-23T13:32:06;5.60;;;1.57;;
4434;SDS011;46552;52.150;8.428;2024-03-23T13:34:33;2.93;;;2.00;;
4434;SDS011;46552;52.150;8.428;2024-03-23T13:37:00;3.63;;;1.47;;
4434;SDS011;46552;52.150;8.428;2024-03-23T13:39:28;6.13;;;1.53;;
4434;SDS011;46552;52.150;8.428;2024-03-23T13:41:56;5.40;;;1.80;;
4434;SDS011;46552;52.150;8.428;2024-03-23T13:44:23;4.70;;;1.70;;
4434;SDS011;46552;52.150;8.428;2024-03-23T13:46:49;11.80;;;2.33;;
4434;SDS011;46552;52.150;8.428;2024-03-23T13:49:27;4.00;;;1.93;;
4434;SDS011;46552;52.150;8.428;2024-03-23T13:51:54;4.90;;;1.73;;
4434;SDS011;46552;52.150;8.428;2024-03-23T13:54:23;4.47;;;1.87;;
4434;SDS011;46552;52.150;8.428;2024-03-23T13:56:51;6.77;;;1.80;;
4434;SDS011;46552;52.150;8.428;2024-03-23T13:59:19;7.73;;;2.07;;
4434;SDS011;46552;52.150;8.428;2024-03-23T14:01:46;8.90;;;3.60;;
4434;SDS011;46552;52.150;8.428;2024-03-23T14:04:13;8.00;;;3.40;;
4434;SDS011;46552;52.150;8.428;2024-03-23T14:06:43;4.90;;;2.40;;
4434;SDS011;46552;52.150;8.428;2024-03-23T14:09:11;5.67;;;3.00;;
4434;SDS011;46552;52.150;8.428;2024-03-23T14:11:37;6.80;;;2.60;;
4434;SDS011;46552;52.150;8.428;2024-03-23T14:14:05;4.10;;;2.23;;
4434;SDS011;46552;52.150;8.428;2024-03-23T14:16:32;8.37;;;2.33;;
4434;SDS011;46552;52.150;8.428;2024-03-23T14:18:59;4.90;;;2.30;;
4434;SDS011;46552;52.150;8.428;2024-03-23T14:21:26;6.70;;;2.43;;
4434;SDS011;46552;52.150;8.428;2024-03-23T14:23:55;8.17;;;3.33;;
4434;SDS011;46552;52.150;8.428;2024-03-23T14:26:22;5.00;;;2.30;;
4434;SDS011;46552;52.150;8.428;2024-03-23T14:28:50;7.50;;;3.00;;
4434;SDS011;46552;52.150;8.428;2024-03-23T14:31:16;6.67;;;3.10;;
4434;SDS011;46552;52.150;8.428;2024-03-23T14:33:43;6.20;;;2.00;;
4434;SDS011;46552;52.150;8.428;2024-03-23T14:36:11;5.17;;;2.10;;
4434;SDS011;46552;52.150;8.428;2024-03-23T14:38:39;6.37;;;2.20;;
4434;SDS011;46552;52.150;8.428;2024-03-23T14:41:06;10.50;;;2.70;;
4434;SDS011;46552;52.150;8.428;2024-03-23T14:43:34;8.80;;;3.20;;
4434;SDS011;46552;52.150;8.428;2024-03-23T14:46:07;9.20;;;3.47;;
4434;SDS011;46552;52.150;8.428;2024-03-23T14:48:35;15.00;;;4.90;;
4434;SDS011;46552;52.150;8.428;2024-03-23T14:51:02;8.13;;;2.67;;
4434;SDS011;46552;52.150;8.428;2024-03-23T14:53:31;12.47;;;3.33;;
4434;SDS011;46552;52.150;8.428;2024-03-23T14:55:57;7.97;;;2.60;;
4434;SDS011;46552;52.150;8.428;2024-03-23T14:58:28;5.50;;;2.13;;
4434;SDS011;46552;52.150;8.428;2024-03-23T15:00:59;6.20;;;2.10;;
4434;SDS011;46552;52.150;8.428;2024-03-23T15:03:27;6.63;;;2.10;;
4434;SDS011;46552;52.150;8.428;2024-03-23T15:05:54;3.07;;;1.57;;
4434;SDS011;46552;52.150;8.428;2024-03-23T15:08:21;5.27;;;1.93;;
4434;SDS011;46552;52.150;8.428;2024-03-23T15:10:48;7.20;;;2.60;;
4434;SDS011;46552;52.150;8.428;2024-03-23T15:13:15;8.10;;;1.90;;
4434;SDS011;46552;52.150;8.428;2024-03-23T15:15:44;4.57;;;1.63;;
4434;SDS011;46552;52.150;8.428;2024-03-23T15:18:13;13.57;;;2.53;;
4434;SDS011;46552;52.150;8.428;2024-03-23T15:20:40;10.50;;;2.70;;
4434;SDS011;46552;52.150;8.428;2024-03-23T15:23:07;9.20;;;2.77;;
4434;SDS011;46552;52.150;8.428;2024-03-23T15:25:34;7.17;;;2.27;;
4434;SDS011;46552;52.150;8.428;2024-03-23T15:28:02;4.53;;;1.63;;
4434;SDS011;46552;52.150;8.428;2024-03-23T15:30:28;5.13;;;1.47;;
4434;SDS011;46552;52.150;8.428;2024-03-23T15:32:57;5.33;;;1.90;;
4434;SDS011;46552;52.150;8.428;2024-03-23T15:35:23;9.83;;;1.70;;
4434;SDS011;46552;52.150;8.428;2024-03-23T15:37:51;13.33;;;2.30;;
4434;SDS011;46552;52.150;8.428;2024-03-23T15:40:17;7.30;;;2.33;;
4434;SDS011;46552;52.150;8.428;2024-03-23T15:42:44;7.67;;;2.60;;
4434;SDS011;46552;52.150;8.428;2024-03-23T15:45:10;7.07;;;3.23;;
4434;SDS011;46552;52.150;8.428;2024-03-23T15:47:37;6.83;;;2.93;;